createdAt,value
2019-03-30T00:00:54.869Z,39.70
2019-03-30T00:03:28.106Z,41.42
2019-03-30T00:06:01.626Z,41.05
2019-03-30T00:08:34.910Z,42.80
2019-03-30T00:11:09.164Z,40.20
2019-03-30T00:13:43.543Z,40.20
2019-03-30T00:16:17.054Z,41.58
2019-03-30T00:18:51.277Z,39.27
2019-03-30T00:21:24.948Z,38.10
2019-03-30T00:23:59.503Z,38.78
2019-03-30T00:26:32.958Z,38.35
2019-03-30T00:29:06.373Z,43.50
2019-03-30T00:31:39.893Z,43.33
2019-03-30T00:34:13.230Z,42.00
2019-03-30T00:36:47.164Z,41.68
2019-03-30T00:39:20.558Z,42.85
2019-03-30T00:41:54.553Z,41.98
2019-03-30T00:44:27.783Z,41.95
2019-03-30T00:47:01.926Z,43.63
2019-03-30T00:49:48.517Z,44.33
2019-03-30T00:52:10.804Z,40.83
2019-03-30T00:54:44.183Z,38.17
2019-03-30T00:57:17.818Z,38.78
2019-03-30T00:59:51.165Z,38.90
2019-03-30T01:02:24.797Z,35.03
2019-03-30T01:04:59.486Z,36.68
2019-03-30T01:07:34.134Z,39.38
2019-03-30T01:10:08.554Z,39.15
2019-03-30T01:12:42.150Z,36.58
2019-03-30T01:15:15.858Z,37.88
2019-03-30T01:17:49.278Z,38.00
2019-03-30T01:20:22.583Z,37.73
2019-03-30T01:22:56.635Z,35.88
2019-03-30T01:25:29.950Z,39.50
2019-03-30T01:28:04.178Z,38.90
2019-03-30T01:30:37.715Z,36.13
2019-03-30T01:33:11.553Z,35.75
2019-03-30T01:35:44.833Z,36.23
2019-03-30T01:38:18.485Z,36.55
2019-03-30T01:40:51.896Z,38.02
2019-03-30T01:43:25.309Z,36.10
2019-03-30T01:45:58.638Z,35.45
2019-03-30T01:48:32.109Z,34.33
2019-03-30T01:51:05.456Z,34.83
2019-03-30T01:53:39.514Z,32.90
2019-03-30T01:56:12.815Z,33.35
2019-03-30T01:58:46.584Z,35.33
2019-03-30T02:01:19.851Z,35.40
2019-03-30T02:03:55.107Z,32.53
2019-03-30T02:06:28.572Z,37.10
2019-03-30T02:09:06.125Z,36.83
2019-03-30T02:11:39.422Z,37.48
2019-03-30T02:14:13.246Z,34.50
2019-03-30T02:16:46.570Z,33.85
2019-03-30T02:19:21.831Z,34.75
2019-03-30T02:21:55.192Z,32.17
2019-03-30T02:24:28.532Z,33.98
2019-03-30T02:27:02.094Z,32.00
2019-03-30T02:29:35.454Z,33.23
2019-03-30T02:32:10.582Z,33.30
2019-03-30T02:34:47.741Z,34.20
2019-03-30T02:37:22.675Z,33.45
2019-03-30T02:39:56.370Z,35.63
2019-03-30T02:42:30.026Z,34.92
2019-03-30T02:45:03.523Z,35.43
2019-03-30T02:47:37.260Z,37.38
2019-03-30T02:50:11.044Z,33.15
2019-03-30T02:52:44.403Z,35.40
2019-03-30T02:55:18.205Z,34.38
2019-03-30T02:57:51.523Z,34.38
2019-03-30T03:00:27.101Z,38.23
2019-03-30T03:03:00.653Z,39.50
2019-03-30T03:05:38.074Z,37.83
2019-03-30T03:08:14.301Z,41.85
2019-03-30T03:10:53.079Z,41.73
2019-03-30T03:13:37.842Z,40.17
2019-03-30T03:16:12.965Z,32.63
2019-03-30T03:18:50.987Z,43.08
2019-03-30T03:21:26.258Z,33.90
2019-03-30T03:24:06.771Z,39.05
2019-03-30T03:26:41.051Z,31.73
2019-03-30T03:29:14.918Z,36.93
2019-03-30T03:32:10.542Z,31.33
2019-03-30T03:34:43.960Z,15.15
2019-03-30T03:37:19.070Z,18.30
2019-03-30T03:40:04.474Z,23.10
2019-03-30T03:42:38.743Z,14.70
2019-03-30T03:45:16.137Z,21.33
2019-03-30T03:47:52.886Z,8.55
2019-03-30T03:50:40.571Z,45.03
2019-03-30T03:53:16.086Z,41.65
2019-03-30T03:55:51.251Z,31.60
2019-03-30T03:58:27.079Z,36.42
2019-03-30T04:01:03.181Z,17.25
2019-03-30T04:03:40.551Z,25.35
2019-03-30T04:06:12.572Z,25.52
2019-03-30T04:08:50.262Z,27.58
2019-03-30T04:11:26.480Z,17.30
2019-03-30T04:14:01.450Z,29.55
2019-03-30T04:16:35.185Z,11.68
2019-03-30T04:19:18.544Z,32.88
2019-03-30T04:21:52.350Z,33.10
2019-03-30T04:24:26.895Z,36.33
2019-03-30T04:27:01.351Z,18.55
2019-03-30T04:29:35.347Z,24.07
2019-03-30T04:32:09.173Z,27.45
2019-03-30T04:34:42.470Z,17.30
2019-03-30T04:37:16.398Z,14.50
2019-03-30T04:39:50.944Z,30.17
2019-03-30T04:42:25.049Z,30.37
2019-03-30T04:44:58.399Z,14.85
2019-03-30T04:47:32.027Z,21.12
2019-03-30T04:50:05.948Z,17.17
2019-03-30T04:52:40.475Z,12.30
2019-03-30T04:55:13.753Z,16.50
2019-03-30T04:57:49.558Z,18.98
2019-03-30T05:00:23.741Z,10.08
2019-03-30T05:02:57.407Z,29.77
2019-03-30T05:05:31.257Z,29.57
2019-03-30T05:08:05.092Z,22.50
2019-03-30T05:10:38.694Z,16.25
2019-03-30T05:13:12.424Z,15.38
2019-03-30T05:15:47.218Z,19.67
2019-03-30T05:18:20.808Z,19.10
2019-03-30T05:20:56.981Z,32.65
2019-03-30T05:23:31.798Z,26.68
2019-03-30T05:26:05.492Z,30.95
2019-03-30T05:28:39.569Z,32.30
2019-03-30T05:31:13.382Z,19.75
2019-03-30T05:33:48.023Z,16.90
2019-03-30T05:36:21.507Z,20.00
2019-03-30T05:38:55.283Z,31.77
2019-03-30T05:41:29.060Z,35.23
2019-03-30T05:44:03.886Z,33.40
2019-03-30T05:46:37.990Z,29.20
2019-03-30T05:49:11.672Z,20.72
2019-03-30T05:51:47.519Z,33.38
2019-03-30T05:54:22.619Z,21.90
2019-03-30T05:56:58.300Z,31.25
2019-03-30T05:59:31.748Z,32.03
2019-03-30T06:02:07.955Z,31.55
2019-03-30T06:04:39.725Z,31.07
2019-03-30T06:07:13.771Z,32.17
2019-03-30T06:09:49.196Z,32.63
2019-03-30T06:12:27.338Z,30.08
2019-03-30T06:15:01.186Z,31.27
2019-03-30T06:17:34.837Z,33.58
2019-03-30T06:20:09.339Z,32.83
2019-03-30T06:22:45.707Z,32.40
2019-03-30T06:25:17.719Z,12.73
2019-03-30T06:27:51.798Z,19.12
2019-03-30T06:30:26.328Z,14.43
2019-03-30T06:33:03.128Z,24.40
2019-03-30T06:35:36.396Z,24.12
2019-03-30T06:38:09.954Z,10.80
2019-03-30T06:40:43.387Z,22.05
2019-03-30T06:43:17.050Z,30.82
2019-03-30T06:45:51.859Z,32.10
2019-03-30T06:48:25.237Z,32.23
2019-03-30T06:51:01.326Z,32.83
2019-03-30T06:53:35.468Z,31.07
2019-03-30T06:56:08.838Z,27.93
2019-03-30T06:58:42.331Z,28.38
2019-03-30T07:01:20.066Z,31.60
2019-03-30T07:03:53.419Z,31.10
2019-03-30T07:06:28.098Z,24.32
2019-03-30T07:09:06.340Z,24.90
2019-03-30T07:11:44.751Z,23.32
2019-03-30T07:14:19.908Z,29.72
2019-03-30T07:16:55.550Z,29.25
2019-03-30T07:19:32.483Z,21.77
2019-03-30T07:22:05.192Z,22.32
2019-03-30T07:24:39.128Z,29.27
2019-03-30T07:27:13.562Z,19.65
2019-03-30T07:29:47.776Z,19.23
2019-03-30T07:32:23.555Z,27.15
2019-03-30T07:34:57.717Z,27.15
2019-03-30T07:37:32.073Z,31.02
2019-03-30T07:40:09.859Z,16.80
2019-03-30T07:42:43.643Z,27.48
2019-03-30T07:45:18.858Z,32.63
2019-03-30T07:47:52.705Z,29.98
2019-03-30T07:50:26.510Z,32.88
2019-03-30T07:53:00.275Z,13.70
2019-03-30T07:55:34.044Z,28.07
2019-03-30T07:58:07.902Z,32.83
2019-03-30T08:00:43.143Z,31.02
2019-03-30T08:03:16.699Z,31.80
2019-03-30T08:05:50.347Z,28.60
2019-03-30T08:08:24.197Z,32.17
2019-03-30T08:10:57.913Z,30.88
2019-03-30T08:13:31.604Z,32.28
2019-03-30T08:16:05.101Z,30.17
2019-03-30T08:18:38.631Z,31.70
2019-03-30T08:21:11.975Z,17.62
2019-03-30T08:23:46.100Z,29.80
2019-03-30T08:26:19.300Z,32.48
2019-03-30T08:28:52.973Z,32.88
2019-03-30T08:31:26.348Z,29.92
2019-03-30T08:33:59.812Z,30.45
2019-03-30T08:36:33.395Z,18.42
2019-03-30T08:39:08.407Z,31.45
2019-03-30T08:41:42.040Z,34.25
2019-03-30T08:44:15.839Z,33.98
2019-03-30T08:46:49.689Z,30.77
2019-03-30T08:49:23.554Z,33.13
2019-03-30T08:51:56.785Z,32.60
2019-03-30T08:54:30.823Z,36.60
2019-03-30T08:57:04.058Z,35.15
2019-03-30T08:59:38.757Z,34.78
2019-03-30T09:02:12.113Z,36.38
2019-03-30T09:04:46.155Z,38.73
2019-03-30T09:07:19.466Z,36.25
2019-03-30T09:09:53.097Z,40.33
2019-03-30T09:12:26.387Z,41.80
2019-03-30T09:15:00.169Z,43.68
2019-03-30T09:17:37.050Z,41.88
2019-03-30T09:20:09.796Z,42.70
2019-03-30T09:22:43.134Z,42.80
2019-03-30T09:25:16.683Z,45.55
2019-03-30T09:27:50.127Z,42.50
2019-03-30T09:30:23.733Z,43.45
2019-03-30T09:32:57.042Z,42.48
2019-03-30T09:35:30.434Z,42.55
2019-03-30T09:38:06.361Z,40.67
2019-03-30T09:40:40.429Z,41.37
2019-03-30T09:43:14.432Z,40.67
2019-03-30T09:45:49.240Z,42.45
2019-03-30T09:48:22.828Z,38.60
2019-03-30T09:50:58.165Z,39.73
2019-03-30T09:53:31.995Z,40.35
2019-03-30T09:56:05.373Z,38.48
2019-03-30T09:58:38.826Z,40.17
2019-03-30T10:01:12.013Z,39.88
2019-03-30T10:03:45.457Z,40.35
2019-03-30T10:06:19.047Z,30.00
2019-03-30T10:08:52.375Z,38.28
2019-03-30T10:11:25.618Z,35.60
2019-03-30T10:13:59.695Z,38.58
2019-03-30T10:16:33.002Z,38.33
2019-03-30T10:19:07.963Z,38.88
2019-03-30T10:21:41.340Z,40.38
2019-03-30T10:24:17.377Z,40.33
2019-03-30T10:26:50.638Z,45.78
2019-03-30T10:29:27.111Z,38.98
2019-03-30T10:32:01.075Z,43.85
2019-03-30T10:34:34.678Z,42.58
2019-03-30T10:37:09.983Z,42.98
2019-03-30T10:39:43.542Z,45.00
2019-03-30T10:42:18.957Z,43.10
2019-03-30T10:44:55.119Z,44.00
2019-03-30T10:47:29.099Z,46.60
2019-03-30T10:50:17.416Z,47.55
2019-03-30T10:52:50.857Z,45.15
2019-03-30T10:55:24.454Z,46.83
2019-03-30T10:58:03.534Z,46.75
2019-03-30T11:00:40.548Z,43.78
2019-03-30T11:03:15.324Z,48.92
2019-03-30T11:05:49.338Z,34.30
2019-03-30T11:08:22.833Z,44.73
2019-03-30T11:10:59.838Z,46.98
2019-03-30T11:13:35.238Z,31.37
2019-03-30T11:16:12.768Z,48.78
2019-03-30T11:18:46.122Z,38.05
2019-03-30T11:21:21.392Z,49.00
2019-03-30T11:23:54.098Z,50.20
2019-03-30T11:26:27.521Z,49.25
2019-03-30T11:29:00.783Z,52.62
2019-03-30T11:31:38.148Z,48.78
2019-03-30T11:34:12.910Z,52.50
2019-03-30T11:36:46.364Z,55.25
2019-03-30T11:39:21.890Z,55.75
2019-03-30T11:41:55.364Z,51.33
2019-03-30T11:44:29.128Z,27.55
2019-03-30T11:47:03.067Z,52.80
2019-03-30T11:49:36.504Z,41.20
2019-03-30T11:52:11.226Z,45.43
2019-03-30T11:54:47.137Z,54.23
2019-03-30T11:57:22.871Z,40.58
2019-03-30T12:00:00.379Z,49.48
2019-03-30T12:02:31.818Z,49.05
2019-03-30T12:05:06.485Z,49.35
2019-03-30T12:07:46.767Z,50.25
2019-03-30T12:10:19.518Z,53.45
2019-03-30T12:12:53.190Z,54.75
2019-03-30T12:15:30.774Z,52.10
2019-03-30T12:18:05.619Z,46.40
2019-03-30T12:20:39.607Z,48.78
2019-03-30T12:23:17.098Z,47.40
2019-03-30T12:25:53.629Z,52.88
2019-03-30T12:28:30.731Z,53.25
2019-03-30T12:31:06.818Z,52.43
2019-03-30T12:33:40.665Z,52.65
2019-03-30T12:36:14.298Z,53.98
2019-03-30T12:38:49.877Z,50.58
2019-03-30T12:41:24.275Z,55.95
2019-03-30T12:43:59.390Z,40.90
2019-03-30T12:46:35.187Z,52.62
2019-03-30T12:49:10.325Z,30.40
2019-03-30T12:51:47.414Z,40.05
2019-03-30T12:54:25.917Z,52.27
2019-03-30T12:56:59.308Z,48.80
2019-03-30T12:59:32.843Z,37.05
2019-03-30T13:02:17.669Z,55.55
2019-03-30T13:04:50.963Z,56.37
2019-03-30T13:07:24.382Z,54.83
2019-03-30T13:09:57.971Z,56.77
2019-03-30T13:12:31.286Z,58.95
2019-03-30T13:15:04.511Z,56.28
2019-03-30T13:17:37.826Z,56.28
2019-03-30T13:20:11.851Z,55.55
2019-03-30T13:22:45.374Z,60.50
2019-03-30T13:25:19.039Z,55.43
2019-03-30T13:27:53.704Z,56.55
2019-03-30T13:30:28.728Z,57.25
2019-03-30T13:33:02.633Z,58.63
2019-03-30T13:35:37.057Z,61.02
2019-03-30T13:38:10.770Z,56.60
2019-03-30T13:40:45.331Z,57.98
2019-03-30T13:43:20.424Z,43.95
2019-03-30T13:45:54.127Z,59.27
2019-03-30T13:48:28.149Z,58.58
2019-03-30T13:51:01.788Z,58.08
2019-03-30T13:53:36.935Z,64.20
2019-03-30T13:56:17.435Z,64.62
2019-03-30T13:58:49.985Z,60.52
2019-03-30T14:01:36.149Z,64.53
2019-03-30T14:04:10.970Z,61.63
2019-03-30T14:06:45.268Z,62.65
2019-03-30T14:09:23.791Z,62.95
2019-03-30T14:11:58.674Z,63.92
2019-03-30T14:14:34.375Z,67.40
2019-03-30T14:17:11.755Z,72.03
2019-03-30T14:19:47.695Z,69.05
2019-03-30T14:22:21.172Z,71.55
2019-03-30T14:25:03.743Z,70.80
2019-03-30T14:27:37.790Z,30.10
2019-03-30T14:30:12.903Z,62.90
2019-03-30T14:32:46.348Z,73.07
2019-03-30T14:35:23.022Z,57.83
2019-03-30T14:37:55.931Z,49.67
2019-03-30T14:40:29.881Z,68.28
2019-03-30T14:43:08.683Z,75.00
2019-03-30T14:45:42.503Z,73.40
2019-03-30T14:48:16.055Z,71.72
2019-03-30T14:50:55.319Z,67.55
2019-03-30T14:53:29.338Z,71.25
2019-03-30T14:56:05.587Z,59.08
2019-03-30T14:58:46.824Z,55.43
2019-03-30T15:03:59.194Z,58.80
2019-03-30T15:06:38.310Z,61.08
2019-03-30T15:09:11.230Z,63.30
2019-03-30T15:11:46.133Z,48.45
2019-03-30T15:14:19.522Z,55.17
2019-03-30T15:16:58.294Z,59.27
2019-03-30T15:19:32.782Z,61.68
2019-03-30T15:22:06.226Z,60.38
2019-03-30T15:24:40.136Z,59.35
2019-03-30T15:27:15.217Z,58.05
2019-03-30T15:29:47.919Z,58.50
2019-03-30T15:32:21.632Z,58.85
2019-03-30T15:34:58.136Z,55.05
2019-03-30T15:37:31.300Z,60.48
2019-03-30T15:40:04.767Z,51.35
2019-03-30T15:42:42.780Z,62.65
2019-03-30T15:45:16.833Z,58.28
2019-03-30T15:47:50.310Z,64.27
2019-03-30T15:50:23.821Z,66.75
2019-03-30T15:52:57.436Z,63.10
2019-03-30T15:55:31.869Z,57.25
2019-03-30T15:58:06.188Z,60.35
2019-03-30T16:00:39.547Z,54.48
2019-03-30T16:03:16.647Z,64.50
2019-03-30T16:05:50.045Z,61.23
2019-03-30T16:08:33.335Z,64.30
2019-03-30T16:11:06.714Z,62.58
2019-03-30T16:13:42.463Z,32.00
2019-03-30T16:16:15.787Z,57.83
2019-03-30T16:18:51.559Z,54.30
2019-03-30T16:21:24.877Z,62.45
2019-03-30T16:23:58.915Z,60.15
2019-03-30T16:26:41.993Z,58.42
2019-03-30T16:29:09.481Z,66.90
2019-03-30T16:31:43.521Z,64.77
2019-03-30T16:34:18.941Z,68.28
2019-03-30T16:36:57.004Z,66.77
2019-03-30T16:39:34.660Z,80.67
2019-03-30T16:42:07.726Z,58.75
2019-03-30T16:44:41.249Z,98.03
2019-03-30T16:47:17.082Z,82.35
2019-03-30T16:49:52.644Z,70.92
2019-03-30T16:52:26.556Z,62.98
2019-03-30T16:54:59.999Z,68.52
2019-03-30T16:57:43.037Z,67.35
2019-03-30T17:00:12.767Z,42.03
2019-03-30T17:02:46.943Z,65.85
2019-03-30T17:05:24.170Z,61.70
2019-03-30T17:08:00.384Z,67.15
2019-03-30T17:10:33.445Z,66.30
2019-03-30T17:13:07.379Z,66.42
2019-03-30T17:15:41.812Z,65.87
2019-03-30T17:18:15.455Z,66.05
2019-03-30T17:20:49.485Z,62.50
2019-03-30T17:23:23.594Z,69.27
2019-03-30T17:25:57.085Z,68.22
2019-03-30T17:28:31.861Z,60.98
2019-03-30T17:31:05.581Z,68.42
2019-03-30T17:33:39.435Z,65.72
2019-03-30T17:36:13.582Z,69.32
2019-03-30T17:38:46.929Z,67.90
2019-03-30T17:41:21.360Z,62.50
2019-03-30T17:43:54.645Z,65.67
2019-03-30T17:46:28.454Z,69.95
2019-03-30T17:49:01.853Z,65.45
2019-03-30T17:51:35.313Z,65.08
2019-03-30T17:54:09.190Z,69.12
2019-03-30T17:56:43.037Z,65.97
2019-03-30T17:59:17.415Z,68.37
2019-03-30T18:01:52.093Z,69.03
2019-03-30T18:04:25.540Z,64.35
2019-03-30T18:06:59.142Z,64.82
2019-03-30T18:09:33.062Z,56.15
2019-03-30T18:12:06.987Z,57.67
2019-03-30T18:14:40.236Z,46.95
2019-03-30T18:17:14.271Z,63.52
2019-03-30T18:19:47.648Z,58.98
2019-03-30T18:22:22.522Z,63.60
2019-03-30T18:24:55.883Z,59.33
2019-03-30T18:27:29.513Z,44.25
2019-03-30T18:30:03.145Z,58.78
2019-03-30T18:32:37.588Z,64.35
2019-03-30T18:35:11.390Z,60.67
2019-03-30T18:37:45.411Z,63.58
2019-03-30T18:40:30.039Z,59.38
2019-03-30T18:43:04.888Z,49.27
2019-03-30T18:45:38.579Z,35.88
2019-03-30T18:48:16.449Z,61.48
2019-03-30T18:50:50.475Z,64.22
2019-03-30T18:53:23.761Z,65.37
2019-03-30T18:55:57.659Z,63.60
2019-03-30T18:58:41.468Z,66.22
2019-03-30T19:01:06.531Z,64.87
2019-03-30T19:03:39.998Z,66.80
2019-03-30T19:06:13.595Z,67.85
2019-03-30T19:08:46.918Z,67.95
2019-03-30T19:11:20.863Z,68.35
2019-03-30T19:13:54.079Z,66.80
2019-03-30T19:16:27.704Z,67.55
2019-03-30T19:19:01.145Z,70.85
2019-03-30T19:21:34.862Z,69.75
2019-03-30T19:24:08.330Z,66.20
2019-03-30T19:26:41.692Z,60.65
2019-03-30T19:29:15.198Z,64.50
2019-03-30T19:31:48.454Z,62.23
2019-03-30T19:34:22.046Z,63.40
2019-03-30T19:36:55.615Z,64.87
2019-03-30T19:39:29.212Z,63.95
2019-03-30T19:42:02.814Z,63.58
2019-03-30T19:44:36.200Z,63.50
2019-03-30T19:47:09.504Z,62.98
2019-03-30T19:49:43.296Z,64.35
2019-03-30T19:52:16.796Z,63.85
2019-03-30T19:54:50.384Z,65.28
2019-03-30T19:57:27.251Z,66.57
2019-03-30T19:59:58.565Z,64.00
2019-03-30T20:02:31.786Z,65.83
2019-03-30T20:05:05.194Z,74.75
2019-03-30T20:07:38.829Z,69.85
2019-03-30T20:10:12.578Z,63.98
2019-03-30T20:12:46.013Z,68.75
2019-03-30T20:15:19.791Z,66.35
2019-03-30T20:17:53.051Z,68.05
2019-03-30T20:20:26.811Z,66.47
2019-03-30T20:23:00.013Z,70.87
2019-03-30T20:25:33.497Z,68.37
2019-03-30T20:28:07.121Z,71.77
2019-03-30T20:30:40.415Z,72.25
2019-03-30T20:33:13.723Z,70.20
2019-03-30T20:35:47.521Z,62.65
2019-03-30T20:38:20.860Z,69.67
2019-03-30T20:40:54.554Z,73.02
2019-03-30T20:43:27.889Z,72.45
2019-03-30T20:46:01.575Z,73.45
2019-03-30T20:48:35.072Z,68.70
2019-03-30T20:51:09.746Z,69.15
2019-03-30T20:53:44.549Z,68.05
2019-03-30T20:56:18.258Z,69.50
2019-03-30T20:58:52.300Z,73.07
2019-03-30T21:01:25.777Z,70.80
2019-03-30T21:03:59.048Z,75.25
2019-03-30T21:06:32.794Z,73.78
2019-03-30T21:09:07.924Z,71.62
2019-03-30T21:11:41.528Z,70.40
2019-03-30T21:14:14.794Z,71.72
2019-03-30T21:16:48.485Z,69.85
2019-03-30T21:19:21.811Z,63.90
2019-03-30T21:21:55.757Z,68.45
2019-03-30T21:24:29.077Z,62.08
2019-03-30T21:27:02.451Z,66.67
2019-03-30T21:29:35.813Z,66.22
2019-03-30T21:32:09.387Z,66.90
2019-03-30T21:34:43.018Z,65.15
2019-03-30T21:37:16.693Z,64.17
2019-03-30T21:39:49.964Z,65.62
2019-03-30T21:42:23.205Z,64.25
2019-03-30T21:44:56.579Z,64.12
2019-03-30T21:47:30.315Z,63.83
2019-03-30T21:50:04.515Z,65.20
2019-03-30T21:52:38.480Z,62.45
2019-03-30T21:55:12.217Z,64.58
2019-03-30T21:57:45.331Z,65.30
2019-03-30T22:00:35.681Z,68.37
2019-03-30T22:03:09.123Z,65.05
2019-03-30T22:05:42.978Z,69.22
2019-03-30T22:08:17.333Z,55.40
2019-03-30T22:10:50.756Z,60.65
2019-03-30T22:13:24.260Z,71.35
2019-03-30T22:15:57.873Z,69.32
2019-03-30T22:18:31.381Z,69.58
2019-03-30T22:21:04.605Z,66.35
2019-03-30T22:23:37.864Z,65.83
2019-03-30T22:26:11.153Z,65.87
2019-03-30T22:28:44.494Z,69.42
2019-03-30T22:31:17.746Z,65.62
2019-03-30T22:33:51.062Z,67.00
2019-03-30T22:36:24.364Z,65.03
2019-03-30T22:38:57.915Z,61.98
2019-03-30T22:41:31.331Z,60.28
2019-03-30T22:44:05.574Z,64.50
2019-03-30T22:46:38.787Z,63.38
2019-03-30T22:49:12.465Z,65.70
2019-03-30T22:51:45.947Z,65.05
2019-03-30T22:54:19.518Z,61.23
2019-03-30T22:56:52.897Z,64.15
2019-03-30T22:59:27.514Z,62.62
2019-03-30T23:02:01.169Z,62.73
2019-03-30T23:04:34.509Z,65.35
2019-03-30T23:07:10.582Z,66.57
2019-03-30T23:09:43.893Z,67.40
2019-03-30T23:12:17.480Z,64.90
2019-03-30T23:14:52.628Z,63.90
2019-03-30T23:17:26.554Z,65.25
2019-03-30T23:19:59.906Z,67.10
2019-03-30T23:22:33.364Z,63.40
2019-03-30T23:25:07.718Z,65.95
2019-03-30T23:27:42.410Z,67.75
2019-03-30T23:30:16.382Z,63.17
2019-03-30T23:32:49.799Z,63.68
2019-03-30T23:35:23.110Z,64.15
2019-03-30T23:37:57.539Z,59.55
2019-03-30T23:40:31.498Z,57.62
2019-03-30T23:43:05.231Z,61.70
2019-03-30T23:45:38.850Z,57.93
2019-03-30T23:48:12.241Z,62.98
2019-03-30T23:50:46.286Z,61.53
2019-03-30T23:53:21.070Z,59.60
2019-03-30T23:55:55.560Z,60.52
2019-03-30T23:58:29.365Z,63.13
